sensor_id;sensor_type;location;lat;lon;timestamp;P1;durP1;ratioP1;P2;durP2;ratioP2
75191;SDS011;63771;52.580;9.734;2023-04-15T00:01:19;5.28;;;4.05;;
75191;SDS011;63771;52.580;9.734;2023-04-15T00:03:44;4.85;;;3.83;;
75191;SDS011;63771;52.580;9.734;2023-04-15T00:06:10;5.45;;;4.32;;
75191;SDS011;63771;52.580;9.734;2023-04-15T00:08:36;7.28;;;4.82;;
75191;SDS011;63771;52.580;9.734;2023-04-15T00:11:01;5.22;;;4.63;;
75191;SDS011;63771;52.580;9.734;2023-04-15T00:13:29;6.53;;;5.15;;
75191;SDS011;63771;52.580;9.734;2023-04-15T00:15:55;5.85;;;5.18;;
75191;SDS011;63771;52.580;9.734;2023-04-15T00:18:20;5.25;;;4.63;;
75191;SDS011;63771;52.580;9.734;2023-04-15T00:20:46;6.55;;;5.47;;
75191;SDS011;63771;52.580;9.734;2023-04-15T00:23:12;5.00;;;4.50;;
75191;SDS011;63771;52.580;9.734;2023-04-15T00:25:37;5.30;;;4.85;;
75191;SDS011;63771;52.580;9.734;2023-04-15T00:28:03;6.03;;;5.00;;
75191;SDS011;63771;52.580;9.734;2023-04-15T00:30:28;5.40;;;4.90;;
75191;SDS011;63771;52.580;9.734;2023-04-15T00:32:53;5.40;;;4.90;;
75191;SDS011;63771;52.580;9.734;2023-04-15T00:35:19;6.15;;;5.07;;
75191;SDS011;63771;52.580;9.734;2023-04-15T00:37:44;7.78;;;5.25;;
75191;SDS011;63771;52.580;9.734;2023-04-15T00:40:13;5.83;;;4.57;;
75191;SDS011;63771;52.580;9.734;2023-04-15T00:42:42;7.05;;;5.75;;
75191;SDS011;63771;52.580;9.734;2023-04-15T00:45:09;5.53;;;4.97;;
75191;SDS011;63771;52.580;9.734;2023-04-15T00:47:35;6.97;;;5.28;;
75191;SDS011;63771;52.580;9.734;2023-04-15T00:50:01;5.72;;;5.22;;
75191;SDS011;63771;52.580;9.734;2023-04-15T00:52:27;7.95;;;5.18;;
75191;SDS011;63771;52.580;9.734;2023-04-15T00:54:52;7.78;;;4.82;;
75191;SDS011;63771;52.580;9.734;2023-04-15T00:57:18;7.97;;;5.73;;
75191;SDS011;63771;52.580;9.734;2023-04-15T00:59:45;8.27;;;5.53;;
75191;SDS011;63771;52.580;9.734;2023-04-15T01:02:11;8.25;;;6.28;;
75191;SDS011;63771;52.580;9.734;2023-04-15T01:04:36;6.45;;;5.82;;
75191;SDS011;63771;52.580;9.734;2023-04-15T01:07:02;8.50;;;5.65;;
75191;SDS011;63771;52.580;9.734;2023-04-15T01:09:27;6.45;;;5.57;;
75191;SDS011;63771;52.580;9.734;2023-04-15T01:11:53;9.03;;;7.43;;
75191;SDS011;63771;52.580;9.734;2023-04-15T01:14:18;6.53;;;5.17;;
75191;SDS011;63771;52.580;9.734;2023-04-15T01:16:43;6.57;;;5.28;;
75191;SDS011;63771;52.580;9.734;2023-04-15T01:19:09;5.60;;;5.00;;
75191;SDS011;63771;52.580;9.734;2023-04-15T01:21:36;6.97;;;6.27;;
75191;SDS011;63771;52.580;9.734;2023-04-15T01:24:04;6.85;;;6.15;;
75191;SDS011;63771;52.580;9.734;2023-04-15T01:26:34;6.40;;;5.70;;
75191;SDS011;63771;52.580;9.734;2023-04-15T01:29:03;8.52;;;6.53;;
75191;SDS011;63771;52.580;9.734;2023-04-15T01:31:28;10.13;;;5.53;;
75191;SDS011;63771;52.580;9.734;2023-04-15T01:33:54;7.30;;;5.80;;
75191;SDS011;63771;52.580;9.734;2023-04-15T01:36:19;5.70;;;5.03;;
75191;SDS011;63771;52.580;9.734;2023-04-15T01:38:44;11.40;;;6.70;;
75191;SDS011;63771;52.580;9.734;2023-04-15T01:41:10;7.43;;;5.88;;
75191;SDS011;63771;52.580;9.734;2023-04-15T01:43:35;10.38;;;6.05;;
75191;SDS011;63771;52.580;9.734;2023-04-15T01:46:03;9.27;;;5.90;;
75191;SDS011;63771;52.580;9.734;2023-04-15T01:48:30;10.50;;;6.97;;
75191;SDS011;63771;52.580;9.734;2023-04-15T01:50:56;7.97;;;6.47;;
75191;SDS011;63771;52.580;9.734;2023-04-15T01:53:22;10.02;;;6.18;;
75191;SDS011;63771;52.580;9.734;2023-04-15T01:55:49;9.90;;;6.65;;
75191;SDS011;63771;52.580;9.734;2023-04-15T01:58:14;8.90;;;6.30;;
75191;SDS011;63771;52.580;9.734;2023-04-15T02:00:40;8.57;;;5.82;;
75191;SDS011;63771;52.580;9.734;2023-04-15T02:03:05;10.17;;;7.60;;
75191;SDS011;63771;52.580;9.734;2023-04-15T02:05:31;7.97;;;6.05;;
75191;SDS011;63771;52.580;9.734;2023-04-15T02:07:56;9.53;;;6.70;;
75191;SDS011;63771;52.580;9.734;2023-04-15T02:10:22;7.40;;;6.28;;
75191;SDS011;63771;52.580;9.734;2023-04-15T02:12:47;9.50;;;7.03;;
75191;SDS011;63771;52.580;9.734;2023-04-15T02:15:12;9.50;;;7.45;;
75191;SDS011;63771;52.580;9.734;2023-04-15T02:17:38;11.07;;;7.03;;
75191;SDS011;63771;52.580;9.734;2023-04-15T02:20:03;9.70;;;7.70;;
75191;SDS011;63771;52.580;9.734;2023-04-15T02:22:32;9.75;;;7.43;;
75191;SDS011;63771;52.580;9.734;2023-04-15T02:24:58;10.32;;;7.82;;
75191;SDS011;63771;52.580;9.734;2023-04-15T02:27:23;10.17;;;7.10;;
75191;SDS011;63771;52.580;9.734;2023-04-15T02:29:48;9.63;;;7.33;;
75191;SDS011;63771;52.580;9.734;2023-04-15T02:32:17;9.73;;;7.07;;
75191;SDS011;63771;52.580;9.734;2023-04-15T02:34:42;11.52;;;6.95;;
75191;SDS011;63771;52.580;9.734;2023-04-15T02:37:08;10.82;;;7.47;;
75191;SDS011;63771;52.580;9.734;2023-04-15T02:39:35;10.25;;;7.57;;
75191;SDS011;63771;52.580;9.734;2023-04-15T02:42:00;11.05;;;8.23;;
75191;SDS011;63771;52.580;9.734;2023-04-15T02:44:26;10.70;;;8.38;;
75191;SDS011;63771;52.580;9.734;2023-04-15T02:46:52;11.10;;;8.32;;
75191;SDS011;63771;52.580;9.734;2023-04-15T02:49:19;15.52;;;8.60;;
75191;SDS011;63771;52.580;9.734;2023-04-15T02:51:47;11.45;;;8.25;;
75191;SDS011;63771;52.580;9.734;2023-04-15T02:54:19;11.15;;;7.78;;
75191;SDS011;63771;52.580;9.734;2023-04-15T02:56:49;12.65;;;8.70;;
75191;SDS011;63771;52.580;9.734;2023-04-15T02:59:15;14.68;;;9.48;;
75191;SDS011;63771;52.580;9.734;2023-04-15T03:01:40;14.40;;;9.10;;
75191;SDS011;63771;52.580;9.734;2023-04-15T03:04:06;17.70;;;9.45;;
75191;SDS011;63771;52.580;9.734;2023-04-15T03:06:34;13.05;;;9.50;;
75191;SDS011;63771;52.580;9.734;2023-04-15T03:09:00;14.38;;;9.65;;
75191;SDS011;63771;52.580;9.734;2023-04-15T03:11:26;15.73;;;10.52;;
75191;SDS011;63771;52.580;9.734;2023-04-15T03:13:52;15.38;;;9.40;;
75191;SDS011;63771;52.580;9.734;2023-04-15T03:16:17;16.23;;;10.23;;
75191;SDS011;63771;52.580;9.734;2023-04-15T03:18:42;14.83;;;10.13;;
75191;SDS011;63771;52.580;9.734;2023-04-15T03:21:08;15.27;;;9.83;;
75191;SDS011;63771;52.580;9.734;2023-04-15T03:23:33;17.67;;;9.80;;
75191;SDS011;63771;52.580;9.734;2023-04-15T03:26:01;19.47;;;10.40;;
75191;SDS011;63771;52.580;9.734;2023-04-15T03:28:27;15.73;;;10.55;;
75191;SDS011;63771;52.580;9.734;2023-04-15T03:30:54;15.05;;;10.52;;
75191;SDS011;63771;52.580;9.734;2023-04-15T03:33:19;15.38;;;10.88;;
75191;SDS011;63771;52.580;9.734;2023-04-15T03:35:44;16.23;;;10.65;;
75191;SDS011;63771;52.580;9.734;2023-04-15T03:38:10;16.55;;;10.77;;
75191;SDS011;63771;52.580;9.734;2023-04-15T03:40:36;18.05;;;11.45;;
75191;SDS011;63771;52.580;9.734;2023-04-15T03:43:01;25.27;;;12.77;;
75191;SDS011;63771;52.580;9.734;2023-04-15T03:45:26;17.37;;;11.07;;
75191;SDS011;63771;52.580;9.734;2023-04-15T03:47:52;15.75;;;11.57;;
75191;SDS011;63771;52.580;9.734;2023-04-15T03:50:17;21.50;;;12.33;;
75191;SDS011;63771;52.580;9.734;2023-04-15T03:52:43;19.23;;;12.67;;
75191;SDS011;63771;52.580;9.734;2023-04-15T03:55:08;15.18;;;10.63;;
75191;SDS011;63771;52.580;9.734;2023-04-15T03:57:34;17.23;;;11.88;;
75191;SDS011;63771;52.580;9.734;2023-04-15T04:00:06;21.17;;;12.55;;
75191;SDS011;63771;52.580;9.734;2023-04-15T04:02:35;22.45;;;10.98;;
75191;SDS011;63771;52.580;9.734;2023-04-15T04:05:01;17.20;;;11.30;;
75191;SDS011;63771;52.580;9.734;2023-04-15T04:07:27;14.70;;;10.48;;
75191;SDS011;63771;52.580;9.734;2023-04-15T04:09:52;19.10;;;11.13;;
75191;SDS011;63771;52.580;9.734;2023-04-15T04:12:17;19.70;;;10.95;;
75191;SDS011;63771;52.580;9.734;2023-04-15T04:14:43;17.70;;;11.73;;
75191;SDS011;63771;52.580;9.734;2023-04-15T04:17:08;16.10;;;10.20;;
75191;SDS011;63771;52.580;9.734;2023-04-15T04:19:33;17.53;;;10.40;;
75191;SDS011;63771;52.580;9.734;2023-04-15T04:21:59;17.63;;;11.52;;
75191;SDS011;63771;52.580;9.734;2023-04-15T04:24:24;19.53;;;11.03;;
75191;SDS011;63771;52.580;9.734;2023-04-15T04:26:50;19.30;;;11.63;;
75191;SDS011;63771;52.580;9.734;2023-04-15T04:29:15;17.80;;;11.20;;
75191;SDS011;63771;52.580;9.734;2023-04-15T04:31:41;20.33;;;11.57;;
75191;SDS011;63771;52.580;9.734;2023-04-15T04:34:06;15.90;;;10.77;;
75191;SDS011;63771;52.580;9.734;2023-04-15T04:36:32;18.50;;;11.82;;
75191;SDS011;63771;52.580;9.734;2023-04-15T04:38:58;20.03;;;12.10;;
75191;SDS011;63771;52.580;9.734;2023-04-15T04:41:25;19.58;;;11.93;;
75191;SDS011;63771;52.580;9.734;2023-04-15T04:43:50;16.77;;;11.20;;
75191;SDS011;63771;52.580;9.734;2023-04-15T04:46:16;18.40;;;11.47;;
75191;SDS011;63771;52.580;9.734;2023-04-15T04:48:41;19.17;;;10.30;;
75191;SDS011;63771;52.580;9.734;2023-04-15T04:51:06;19.47;;;11.83;;
75191;SDS011;63771;52.580;9.734;2023-04-15T04:53:32;18.52;;;11.80;;
75191;SDS011;63771;52.580;9.734;2023-04-15T04:55:57;18.55;;;11.95;;
75191;SDS011;63771;52.580;9.734;2023-04-15T04:58:23;18.40;;;11.77;;
75191;SDS011;63771;52.580;9.734;2023-04-15T05:00:48;17.70;;;10.60;;
75191;SDS011;63771;52.580;9.734;2023-04-15T05:03:13;20.40;;;11.87;;
75191;SDS011;63771;52.580;9.734;2023-04-15T05:05:39;20.88;;;12.40;;
75191;SDS011;63771;52.580;9.734;2023-04-15T05:08:05;17.55;;;11.52;;
75191;SDS011;63771;52.580;9.734;2023-04-15T05:10:31;19.92;;;12.27;;
75191;SDS011;63771;52.580;9.734;2023-04-15T05:12:56;20.23;;;10.97;;
75191;SDS011;63771;52.580;9.734;2023-04-15T05:15:22;20.25;;;11.48;;
75191;SDS011;63771;52.580;9.734;2023-04-15T05:17:47;20.63;;;12.73;;
75191;SDS011;63771;52.580;9.734;2023-04-15T05:20:12;17.23;;;11.50;;
75191;SDS011;63771;52.580;9.734;2023-04-15T05:22:38;18.50;;;12.32;;
75191;SDS011;63771;52.580;9.734;2023-04-15T05:25:03;16.43;;;10.43;;
75191;SDS011;63771;52.580;9.734;2023-04-15T05:27:29;18.42;;;11.02;;
75191;SDS011;63771;52.580;9.734;2023-04-15T05:29:54;18.23;;;11.00;;
75191;SDS011;63771;52.580;9.734;2023-04-15T05:32:20;20.65;;;12.25;;
75191;SDS011;63771;52.580;9.734;2023-04-15T05:34:46;16.73;;;10.98;;
75191;SDS011;63771;52.580;9.734;2023-04-15T05:37:11;18.08;;;10.77;;
75191;SDS011;63771;52.580;9.734;2023-04-15T05:39:37;16.38;;;9.98;;
75191;SDS011;63771;52.580;9.734;2023-04-15T05:42:02;17.75;;;9.65;;
75191;SDS011;63771;52.580;9.734;2023-04-15T05:44:29;14.90;;;9.10;;
75191;SDS011;63771;52.580;9.734;2023-04-15T05:46:55;15.33;;;9.87;;
75191;SDS011;63771;52.580;9.734;2023-04-15T05:49:20;16.67;;;11.15;;
75191;SDS011;63771;52.580;9.734;2023-04-15T05:51:46;15.07;;;9.77;;
75191;SDS011;63771;52.580;9.734;2023-04-15T05:54:12;15.25;;;10.60;;
75191;SDS011;63771;52.580;9.734;2023-04-15T05:56:37;18.07;;;10.87;;
75191;SDS011;63771;52.580;9.734;2023-04-15T05:59:02;16.10;;;10.37;;
75191;SDS011;63771;52.580;9.734;2023-04-15T06:01:28;14.93;;;9.40;;
75191;SDS011;63771;52.580;9.734;2023-04-15T06:03:53;13.17;;;8.77;;
75191;SDS011;63771;52.580;9.734;2023-04-15T06:06:18;16.30;;;9.20;;
75191;SDS011;63771;52.580;9.734;2023-04-15T06:08:44;15.05;;;9.77;;
75191;SDS011;63771;52.580;9.734;2023-04-15T06:11:10;14.63;;;8.93;;
75191;SDS011;63771;52.580;9.734;2023-04-15T06:13:35;13.40;;;9.53;;
75191;SDS011;63771;52.580;9.734;2023-04-15T06:16:00;12.73;;;8.13;;
75191;SDS011;63771;52.580;9.734;2023-04-15T06:18:26;14.35;;;10.48;;
75191;SDS011;63771;52.580;9.734;2023-04-15T06:20:51;13.77;;;9.03;;
75191;SDS011;63771;52.580;9.734;2023-04-15T06:23:17;12.80;;;8.20;;
75191;SDS011;63771;52.580;9.734;2023-04-15T06:25:42;14.82;;;7.93;;
75191;SDS011;63771;52.580;9.734;2023-04-15T06:28:08;15.10;;;8.43;;
75191;SDS011;63771;52.580;9.734;2023-04-15T06:30:33;14.63;;;9.18;;
75191;SDS011;63771;52.580;9.734;2023-04-15T06:32:59;12.95;;;8.20;;
75191;SDS011;63771;52.580;9.734;2023-04-15T06:35:25;15.33;;;9.00;;
75191;SDS011;63771;52.580;9.734;2023-04-15T06:37:51;13.48;;;7.75;;
75191;SDS011;63771;52.580;9.734;2023-04-15T06:40:16;12.20;;;8.30;;
75191;SDS011;63771;52.580;9.734;2023-04-15T06:42:42;14.23;;;7.80;;
75191;SDS011;63771;52.580;9.734;2023-04-15T06:45:07;12.27;;;6.90;;
75191;SDS011;63771;52.580;9.734;2023-04-15T06:47:33;10.57;;;7.22;;
75191;SDS011;63771;52.580;9.734;2023-04-15T06:49:58;8.90;;;6.43;;
75191;SDS011;63771;52.580;9.734;2023-04-15T06:52:24;9.47;;;6.37;;
75191;SDS011;63771;52.580;9.734;2023-04-15T06:54:49;8.93;;;6.30;;
75191;SDS011;63771;52.580;9.734;2023-04-15T06:57:14;10.93;;;7.60;;
75191;SDS011;63771;52.580;9.734;2023-04-15T06:59:40;9.23;;;5.60;;
75191;SDS011;63771;52.580;9.734;2023-04-15T07:02:05;7.57;;;6.10;;
75191;SDS011;63771;52.580;9.734;2023-04-15T07:04:36;6.78;;;5.75;;
75191;SDS011;63771;52.580;9.734;2023-04-15T07:07:01;7.35;;;5.55;;
75191;SDS011;63771;52.580;9.734;2023-04-15T07:09:27;6.97;;;5.50;;
75191;SDS011;63771;52.580;9.734;2023-04-15T07:11:52;8.67;;;5.40;;
75191;SDS011;63771;52.580;9.734;2023-04-15T07:14:17;9.10;;;4.87;;
75191;SDS011;63771;52.580;9.734;2023-04-15T07:16:43;7.97;;;5.23;;
75191;SDS011;63771;52.580;9.734;2023-04-15T07:19:08;7.22;;;5.30;;
75191;SDS011;63771;52.580;9.734;2023-04-15T07:21:33;5.50;;;4.90;;
75191;SDS011;63771;52.580;9.734;2023-04-15T07:23:59;6.53;;;5.07;;
75191;SDS011;63771;52.580;9.734;2023-04-15T07:26:24;6.55;;;5.28;;
75191;SDS011;63771;52.580;9.734;2023-04-15T07:28:50;6.50;;;5.03;;
75191;SDS011;63771;52.580;9.734;2023-04-15T07:31:15;6.35;;;5.18;;
75191;SDS011;63771;52.580;9.734;2023-04-15T07:33:41;6.03;;;5.07;;
75191;SDS011;63771;52.580;9.734;2023-04-15T07:36:06;5.50;;;4.68;;
75191;SDS011;63771;52.580;9.734;2023-04-15T07:38:32;4.22;;;3.85;;
75191;SDS011;63771;52.580;9.734;2023-04-15T07:40:57;3.93;;;3.50;;
75191;SDS011;63771;52.580;9.734;2023-04-15T07:43:23;4.18;;;3.78;;
75191;SDS011;63771;52.580;9.734;2023-04-15T07:45:48;5.50;;;3.90;;
75191;SDS011;63771;52.580;9.734;2023-04-15T07:48:14;3.87;;;3.43;;
75191;SDS011;63771;52.580;9.734;2023-04-15T07:50:39;4.65;;;3.90;;
75191;SDS011;63771;52.580;9.734;2023-04-15T07:53:05;3.33;;;3.00;;
75191;SDS011;63771;52.580;9.734;2023-04-15T07:55:31;4.72;;;4.22;;
75191;SDS011;63771;52.580;9.734;2023-04-15T07:57:56;4.40;;;4.00;;
75191;SDS011;63771;52.580;9.734;2023-04-15T08:00:22;3.92;;;3.53;;
75191;SDS011;63771;52.580;9.734;2023-04-15T08:02:47;3.78;;;3.38;;
75191;SDS011;63771;52.580;9.734;2023-04-15T08:05:13;4.30;;;3.70;;
75191;SDS011;63771;52.580;9.734;2023-04-15T08:07:39;4.72;;;3.22;;
75191;SDS011;63771;52.580;9.734;2023-04-15T08:10:05;4.88;;;3.80;;
75191;SDS011;63771;52.580;9.734;2023-04-15T08:12:31;3.53;;;2.80;;
75191;SDS011;63771;52.580;9.734;2023-04-15T08:14:56;3.73;;;3.17;;
75191;SDS011;63771;52.580;9.734;2023-04-15T08:17:21;4.70;;;3.90;;
75191;SDS011;63771;52.580;9.734;2023-04-15T08:19:47;3.92;;;3.33;;
75191;SDS011;63771;52.580;9.734;2023-04-15T08:22:13;3.60;;;3.10;;
75191;SDS011;63771;52.580;9.734;2023-04-15T08:24:38;3.13;;;2.72;;
75191;SDS011;63771;52.580;9.734;2023-04-15T08:27:04;2.85;;;2.65;;
75191;SDS011;63771;52.580;9.734;2023-04-15T08:29:30;3.53;;;3.05;;
75191;SDS011;63771;52.580;9.734;2023-04-15T08:31:58;3.70;;;3.40;;
75191;SDS011;63771;52.580;9.734;2023-04-15T08:34:28;3.70;;;3.38;;
75191;SDS011;63771;52.580;9.734;2023-04-15T08:36:53;3.45;;;3.10;;
75191;SDS011;63771;52.580;9.734;2023-04-15T08:39:19;3.85;;;3.55;;
75191;SDS011;63771;52.580;9.734;2023-04-15T08:41:45;3.92;;;3.25;;
75191;SDS011;63771;52.580;9.734;2023-04-15T08:44:12;4.03;;;3.58;;
75191;SDS011;63771;52.580;9.734;2023-04-15T08:46:38;3.65;;;3.35;;
75191;SDS011;63771;52.580;9.734;2023-04-15T08:49:06;4.70;;;3.70;;
75191;SDS011;63771;52.580;9.734;2023-04-15T08:54:00;4.72;;;3.88;;
75191;SDS011;63771;52.580;9.734;2023-04-15T08:56:26;5.47;;;3.90;;
75191;SDS011;63771;52.580;9.734;2023-04-15T08:58:52;5.72;;;5.22;;
75191;SDS011;63771;52.580;9.734;2023-04-15T09:01:17;5.72;;;4.63;;
75191;SDS011;63771;52.580;9.734;2023-04-15T09:03:43;5.70;;;4.40;;
75191;SDS011;63771;52.580;9.734;2023-04-15T09:06:10;5.28;;;4.65;;
75191;SDS011;63771;52.580;9.734;2023-04-15T09:08:35;5.35;;;4.85;;
75191;SDS011;63771;52.580;9.734;2023-04-15T09:11:01;6.83;;;5.27;;
75191;SDS011;63771;52.580;9.734;2023-04-15T09:13:27;7.80;;;5.30;;
75191;SDS011;63771;52.580;9.734;2023-04-15T09:15:53;7.93;;;6.00;;
75191;SDS011;63771;52.580;9.734;2023-04-15T09:18:28;10.20;;;4.82;;
75191;SDS011;63771;52.580;9.734;2023-04-15T09:20:56;9.85;;;7.03;;
75191;SDS011;63771;52.580;9.734;2023-04-15T09:23:29;9.38;;;6.18;;
75191;SDS011;63771;52.580;9.734;2023-04-15T09:25:55;9.70;;;6.32;;
75191;SDS011;63771;52.580;9.734;2023-04-15T09:28:24;10.75;;;7.05;;
75191;SDS011;63771;52.580;9.734;2023-04-15T09:30:51;7.97;;;6.55;;
75191;SDS011;63771;52.580;9.734;2023-04-15T09:33:20;10.23;;;6.90;;
75191;SDS011;63771;52.580;9.734;2023-04-15T09:35:55;14.02;;;7.70;;
75191;SDS011;63771;52.580;9.734;2023-04-15T09:38:22;10.32;;;7.88;;
75191;SDS011;63771;52.580;9.734;2023-04-15T09:40:48;14.32;;;8.30;;
75191;SDS011;63771;52.580;9.734;2023-04-15T09:43:13;14.10;;;8.17;;
75191;SDS011;63771;52.580;9.734;2023-04-15T09:45:46;10.23;;;7.07;;
75191;SDS011;63771;52.580;9.734;2023-04-15T09:48:17;14.35;;;8.70;;
75191;SDS011;63771;52.580;9.734;2023-04-15T09:50:42;13.57;;;8.70;;
75191;SDS011;63771;52.580;9.734;2023-04-15T09:53:09;18.52;;;9.73;;
75191;SDS011;63771;52.580;9.734;2023-04-15T09:55:38;14.57;;;8.35;;
75191;SDS011;63771;52.580;9.734;2023-04-15T09:58:07;17.20;;;9.93;;
75191;SDS011;63771;52.580;9.734;2023-04-15T10:00:34;18.83;;;10.85;;
75191;SDS011;63771;52.580;9.734;2023-04-15T10:03:01;16.27;;;10.15;;
75191;SDS011;63771;52.580;9.734;2023-04-15T10:05:29;18.63;;;11.15;;
75191;SDS011;63771;52.580;9.734;2023-04-15T10:07:55;16.20;;;10.35;;
75191;SDS011;63771;52.580;9.734;2023-04-15T10:10:21;16.95;;;10.32;;
75191;SDS011;63771;52.580;9.734;2023-04-15T10:12:46;22.50;;;12.05;;
75191;SDS011;63771;52.580;9.734;2023-04-15T10:15:15;21.15;;;11.35;;
75191;SDS011;63771;52.580;9.734;2023-04-15T10:17:42;23.00;;;12.40;;
75191;SDS011;63771;52.580;9.734;2023-04-15T10:20:09;21.60;;;12.80;;
75191;SDS011;63771;52.580;9.734;2023-04-15T10:22:34;23.23;;;13.23;;
75191;SDS011;63771;52.580;9.734;2023-04-15T10:25:00;26.38;;;13.00;;
75191;SDS011;63771;52.580;9.734;2023-04-15T10:27:28;26.17;;;13.05;;
75191;SDS011;63771;52.580;9.734;2023-04-15T10:29:54;23.50;;;13.88;;
75191;SDS011;63771;52.580;9.734;2023-04-15T10:32:21;27.10;;;14.00;;
75191;SDS011;63771;52.580;9.734;2023-04-15T10:37:20;26.10;;;13.35;;
75191;SDS011;63771;52.580;9.734;2023-04-15T10:39:46;30.73;;;14.63;;
75191;SDS011;63771;52.580;9.734;2023-04-15T10:42:13;27.92;;;14.73;;
75191;SDS011;63771;52.580;9.734;2023-04-15T10:44:44;25.17;;;15.00;;
75191;SDS011;63771;52.580;9.734;2023-04-15T10:47:16;31.42;;;16.33;;
75191;SDS011;63771;52.580;9.734;2023-04-15T10:49:57;31.92;;;16.20;;
75191;SDS011;63771;52.580;9.734;2023-04-15T10:52:25;35.35;;;15.98;;
75191;SDS011;63771;52.580;9.734;2023-04-15T10:55:04;31.83;;;16.67;;
75191;SDS011;63771;52.580;9.734;2023-04-15T10:57:39;27.63;;;15.23;;
75191;SDS011;63771;52.580;9.734;2023-04-15T11:00:16;28.90;;;15.40;;
75191;SDS011;63771;52.580;9.734;2023-04-15T11:05:13;33.20;;;17.40;;
75191;SDS011;63771;52.580;9.734;2023-04-15T11:10:53;35.05;;;18.77;;
75191;SDS011;63771;52.580;9.734;2023-04-15T11:13:04;39.28;;;19.73;;
75191;SDS011;63771;52.580;9.734;2023-04-15T11:15:41;34.65;;;18.27;;
75191;SDS011;63771;52.580;9.734;2023-04-15T11:18:14;31.50;;;16.95;;
75191;SDS011;63771;52.580;9.734;2023-04-15T11:20:48;40.92;;;19.45;;
75191;SDS011;63771;52.580;9.734;2023-04-15T11:23:26;32.83;;;17.67;;
75191;SDS011;63771;52.580;9.734;2023-04-15T11:25:56;36.25;;;18.95;;
75191;SDS011;63771;52.580;9.734;2023-04-15T11:28:26;35.00;;;18.50;;
75191;SDS011;63771;52.580;9.734;2023-04-15T11:30:52;40.72;;;19.67;;
75191;SDS011;63771;52.580;9.734;2023-04-15T11:33:19;40.88;;;21.15;;
75191;SDS011;63771;52.580;9.734;2023-04-15T11:35:46;35.67;;;19.42;;
75191;SDS011;63771;52.580;9.734;2023-04-15T11:38:12;35.40;;;20.05;;
75191;SDS011;63771;52.580;9.734;2023-04-15T11:40:38;41.03;;;20.52;;
75191;SDS011;63771;52.580;9.734;2023-04-15T11:43:08;42.53;;;21.88;;
75191;SDS011;63771;52.580;9.734;2023-04-15T11:45:48;38.92;;;18.45;;
75191;SDS011;63771;52.580;9.734;2023-04-15T11:48:15;40.80;;;20.75;;
75191;SDS011;63771;52.580;9.734;2023-04-15T11:50:41;38.72;;;21.65;;
75191;SDS011;63771;52.580;9.734;2023-04-15T11:53:07;43.43;;;21.80;;
75191;SDS011;63771;52.580;9.734;2023-04-15T11:55:40;41.25;;;25.13;;
75191;SDS011;63771;52.580;9.734;2023-04-15T11:58:16;41.25;;;21.63;;
75191;SDS011;63771;52.580;9.734;2023-04-15T12:00:59;42.00;;;22.75;;
75191;SDS011;63771;52.580;9.734;2023-04-15T12:14:07;42.35;;;22.77;;
75191;SDS011;63771;52.580;9.734;2023-04-15T12:16:33;38.75;;;22.20;;
75191;SDS011;63771;52.580;9.734;2023-04-15T12:19:01;39.22;;;21.80;;
75191;SDS011;63771;52.580;9.734;2023-04-15T12:21:32;36.25;;;22.58;;
75191;SDS011;63771;52.580;9.734;2023-04-15T12:24:00;43.08;;;22.10;;
75191;SDS011;63771;52.580;9.734;2023-04-15T12:29:00;38.65;;;21.60;;
75191;SDS011;63771;52.580;9.734;2023-04-15T12:31:27;38.20;;;23.65;;
75191;SDS011;63771;52.580;9.734;2023-04-15T12:33:56;38.95;;;22.50;;
75191;SDS011;63771;52.580;9.734;2023-04-15T12:36:23;44.47;;;22.25;;
75191;SDS011;63771;52.580;9.734;2023-04-15T12:38:48;34.17;;;20.73;;
75191;SDS011;63771;52.580;9.734;2023-04-15T12:41:14;41.30;;;22.38;;
75191;SDS011;63771;52.580;9.734;2023-04-15T12:43:40;33.30;;;19.77;;
75191;SDS011;63771;52.580;9.734;2023-04-15T12:46:06;32.95;;;20.08;;
75191;SDS011;63771;52.580;9.734;2023-04-15T12:48:32;37.80;;;21.58;;
75191;SDS011;63771;52.580;9.734;2023-04-15T12:50:58;33.88;;;21.92;;
75191;SDS011;63771;52.580;9.734;2023-04-15T12:53:23;39.33;;;21.92;;
75191;SDS011;63771;52.580;9.734;2023-04-15T12:55:48;32.57;;;21.57;;
75191;SDS011;63771;52.580;9.734;2023-04-15T12:58:14;37.93;;;20.67;;
75191;SDS011;63771;52.580;9.734;2023-04-15T13:00:39;38.97;;;22.03;;
75191;SDS011;63771;52.580;9.734;2023-04-15T13:03:04;34.77;;;20.20;;
75191;SDS011;63771;52.580;9.734;2023-04-15T13:05:30;34.00;;;19.05;;
75191;SDS011;63771;52.580;9.734;2023-04-15T13:07:55;30.17;;;20.17;;
75191;SDS011;63771;52.580;9.734;2023-04-15T13:10:20;29.90;;;17.87;;
75191;SDS011;63771;52.580;9.734;2023-04-15T13:12:47;25.80;;;16.93;;
75191;SDS011;63771;52.580;9.734;2023-04-15T13:15:14;28.10;;;17.55;;
75191;SDS011;63771;52.580;9.734;2023-04-15T13:17:39;28.73;;;16.95;;
75191;SDS011;63771;52.580;9.734;2023-04-15T13:20:05;26.33;;;18.63;;
75191;SDS011;63771;52.580;9.734;2023-04-15T13:22:30;28.17;;;18.08;;
75191;SDS011;63771;52.580;9.734;2023-04-15T13:24:56;24.53;;;16.53;;
75191;SDS011;63771;52.580;9.734;2023-04-15T13:27:21;24.00;;;16.20;;
75191;SDS011;63771;52.580;9.734;2023-04-15T13:29:47;31.58;;;18.77;;
75191;SDS011;63771;52.580;9.734;2023-04-15T13:32:12;25.77;;;17.40;;
75191;SDS011;63771;52.580;9.734;2023-04-15T13:34:37;25.27;;;16.60;;
75191;SDS011;63771;52.580;9.734;2023-04-15T13:37:06;26.40;;;16.13;;
75191;SDS011;63771;52.580;9.734;2023-04-15T13:39:32;26.20;;;16.65;;
75191;SDS011;63771;52.580;9.734;2023-04-15T13:41:58;24.63;;;14.02;;
75191;SDS011;63771;52.580;9.734;2023-04-15T13:44:23;21.77;;;15.52;;
75191;SDS011;63771;52.580;9.734;2023-04-15T13:46:48;22.33;;;15.37;;
75191;SDS011;63771;52.580;9.734;2023-04-15T13:49:14;18.60;;;14.55;;
75191;SDS011;63771;52.580;9.734;2023-04-15T13:51:39;21.70;;;13.57;;
75191;SDS011;63771;52.580;9.734;2023-04-15T13:54:05;20.27;;;14.07;;
75191;SDS011;63771;52.580;9.734;2023-04-15T13:56:31;17.30;;;13.17;;
75191;SDS011;63771;52.580;9.734;2023-04-15T13:58:56;20.87;;;13.57;;
75191;SDS011;63771;52.580;9.734;2023-04-15T14:01:23;19.90;;;14.25;;
75191;SDS011;63771;52.580;9.734;2023-04-15T14:03:49;16.27;;;12.57;;
75191;SDS011;63771;52.580;9.734;2023-04-15T14:06:14;20.80;;;12.80;;
75191;SDS011;63771;52.580;9.734;2023-04-15T14:08:40;21.88;;;13.20;;
75191;SDS011;63771;52.580;9.734;2023-04-15T14:11:05;21.35;;;13.55;;
75191;SDS011;63771;52.580;9.734;2023-04-15T14:13:33;19.70;;;13.95;;
75191;SDS011;63771;52.580;9.734;2023-04-15T14:15:59;15.90;;;11.93;;
75191;SDS011;63771;52.580;9.734;2023-04-15T14:18:24;20.20;;;12.90;;
75191;SDS011;63771;52.580;9.734;2023-04-15T14:20:50;15.82;;;11.63;;
75191;SDS011;63771;52.580;9.734;2023-04-15T14:23:15;17.98;;;13.40;;
75191;SDS011;63771;52.580;9.734;2023-04-15T14:25:41;18.77;;;12.60;;
75191;SDS011;63771;52.580;9.734;2023-04-15T14:28:06;18.42;;;13.07;;
75191;SDS011;63771;52.580;9.734;2023-04-15T14:30:31;16.30;;;11.40;;
75191;SDS011;63771;52.580;9.734;2023-04-15T14:32:57;16.10;;;12.35;;
75191;SDS011;63771;52.580;9.734;2023-04-15T14:35:22;18.20;;;12.67;;
75191;SDS011;63771;52.580;9.734;2023-04-15T14:37:50;18.95;;;12.65;;
75191;SDS011;63771;52.580;9.734;2023-04-15T14:40:16;22.35;;;15.25;;
75191;SDS011;63771;52.580;9.734;2023-04-15T14:42:41;18.20;;;13.70;;
75191;SDS011;63771;52.580;9.734;2023-04-15T14:45:07;17.88;;;12.75;;
75191;SDS011;63771;52.580;9.734;2023-04-15T14:47:33;19.95;;;14.00;;
75191;SDS011;63771;52.580;9.734;2023-04-15T14:49:58;21.25;;;13.55;;
75191;SDS011;63771;52.580;9.734;2023-04-15T14:52:24;19.98;;;14.52;;